sensor_id;sensor_type;location;lat;lon;timestamp;P1;durP1;ratioP1;P2;durP2;ratioP2
67757;SDS011;54562;47.620;18.786;2023-12-14T00:01:40;27.90;;;9.90;;
67757;SDS011;54562;47.620;18.786;2023-12-14T00:04:46;29.10;;;10.70;;
67757;SDS011;54562;47.620;18.786;2023-12-14T00:07:53;33.00;;;10.40;;
67757;SDS011;54562;47.620;18.786;2023-12-14T00:11:02;41.20;;;10.80;;
67757;SDS011;54562;47.620;18.786;2023-12-14T00:14:10;63.60;;;10.80;;
67757;SDS011;54562;47.620;18.786;2023-12-14T00:17:16;47.60;;;9.70;;
67757;SDS011;54562;47.620;18.786;2023-12-14T00:20:22;66.50;;;12.10;;
67757;SDS011;54562;47.620;18.786;2023-12-14T00:23:29;47.90;;;10.90;;
67757;SDS011;54562;47.620;18.786;2023-12-14T00:26:35;80.30;;;11.10;;
67757;SDS011;54562;47.620;18.786;2023-12-14T00:29:41;76.90;;;12.00;;
67757;SDS011;54562;47.620;18.786;2023-12-14T00:32:48;66.60;;;11.30;;
67757;SDS011;54562;47.620;18.786;2023-12-14T00:35:54;46.20;;;10.10;;
67757;SDS011;54562;47.620;18.786;2023-12-14T00:39:01;71.80;;;11.60;;
67757;SDS011;54562;47.620;18.786;2023-12-14T00:42:08;63.20;;;9.70;;
67757;SDS011;54562;47.620;18.786;2023-12-14T00:45:14;63.60;;;9.00;;
67757;SDS011;54562;47.620;18.786;2023-12-14T00:48:21;59.20;;;9.50;;
67757;SDS011;54562;47.620;18.786;2023-12-14T00:51:27;50.30;;;9.80;;
67757;SDS011;54562;47.620;18.786;2023-12-14T00:54:35;64.10;;;9.60;;
67757;SDS011;54562;47.620;18.786;2023-12-14T00:57:41;46.50;;;10.10;;
67757;SDS011;54562;47.620;18.786;2023-12-14T01:00:47;44.90;;;9.30;;
67757;SDS011;54562;47.620;18.786;2023-12-14T01:03:54;42.90;;;9.70;;
67757;SDS011;54562;47.620;18.786;2023-12-14T01:07:00;29.50;;;8.80;;
67757;SDS011;54562;47.620;18.786;2023-12-14T01:10:07;30.10;;;8.60;;
67757;SDS011;54562;47.620;18.786;2023-12-14T01:13:14;35.20;;;10.00;;
67757;SDS011;54562;47.620;18.786;2023-12-14T01:16:20;33.30;;;9.50;;
67757;SDS011;54562;47.620;18.786;2023-12-14T01:19:27;43.40;;;10.20;;
67757;SDS011;54562;47.620;18.786;2023-12-14T01:22:34;47.60;;;9.80;;
67757;SDS011;54562;47.620;18.786;2023-12-14T01:25:40;28.20;;;9.10;;
67757;SDS011;54562;47.620;18.786;2023-12-14T01:28:47;27.80;;;9.40;;
67757;SDS011;54562;47.620;18.786;2023-12-14T01:31:53;24.80;;;9.60;;
67757;SDS011;54562;47.620;18.786;2023-12-14T01:35:00;32.80;;;10.30;;
67757;SDS011;54562;47.620;18.786;2023-12-14T01:38:07;25.80;;;9.20;;
67757;SDS011;54562;47.620;18.786;2023-12-14T01:41:14;27.80;;;9.50;;
67757;SDS011;54562;47.620;18.786;2023-12-14T01:44:20;28.30;;;9.20;;
67757;SDS011;54562;47.620;18.786;2023-12-14T01:47:27;30.00;;;9.40;;
67757;SDS011;54562;47.620;18.786;2023-12-14T01:50:33;35.40;;;9.90;;
67757;SDS011;54562;47.620;18.786;2023-12-14T01:53:40;47.60;;;11.20;;
67757;SDS011;54562;47.620;18.786;2023-12-14T01:56:46;62.80;;;11.40;;
67757;SDS011;54562;47.620;18.786;2023-12-14T01:59:53;54.00;;;9.70;;
67757;SDS011;54562;47.620;18.786;2023-12-14T02:03:00;72.30;;;10.70;;
67757;SDS011;54562;47.620;18.786;2023-12-14T02:06:07;40.00;;;9.60;;
67757;SDS011;54562;47.620;18.786;2023-12-14T02:09:13;70.10;;;10.10;;
67757;SDS011;54562;47.620;18.786;2023-12-14T02:12:20;44.30;;;10.20;;
67757;SDS011;54562;47.620;18.786;2023-12-14T02:15:27;56.10;;;10.20;;
67757;SDS011;54562;47.620;18.786;2023-12-14T02:18:33;38.80;;;10.10;;
67757;SDS011;54562;47.620;18.786;2023-12-14T02:21:40;46.90;;;10.20;;
67757;SDS011;54562;47.620;18.786;2023-12-14T02:24:47;60.00;;;10.40;;
67757;SDS011;54562;47.620;18.786;2023-12-14T02:27:54;47.20;;;11.70;;
67757;SDS011;54562;47.620;18.786;2023-12-14T02:31:01;63.10;;;10.80;;
67757;SDS011;54562;47.620;18.786;2023-12-14T02:34:08;38.30;;;10.40;;
67757;SDS011;54562;47.620;18.786;2023-12-14T02:37:15;33.50;;;10.20;;
67757;SDS011;54562;47.620;18.786;2023-12-14T02:40:21;43.60;;;11.60;;
67757;SDS011;54562;47.620;18.786;2023-12-14T02:43:28;55.80;;;11.30;;
67757;SDS011;54562;47.620;18.786;2023-12-14T02:46:35;22.80;;;10.40;;
67757;SDS011;54562;47.620;18.786;2023-12-14T02:49:45;39.30;;;11.70;;
67757;SDS011;54562;47.620;18.786;2023-12-14T02:52:55;97.80;;;13.40;;
67757;SDS011;54562;47.620;18.786;2023-12-14T02:56:08;37.80;;;11.30;;
67757;SDS011;54562;47.620;18.786;2023-12-14T02:59:18;39.60;;;11.40;;
67757;SDS011;54562;47.620;18.786;2023-12-14T03:02:29;113.30;;;13.00;;
67757;SDS011;54562;47.620;18.786;2023-12-14T03:05:39;57.80;;;10.90;;
67757;SDS011;54562;47.620;18.786;2023-12-14T03:08:53;82.30;;;13.70;;
67757;SDS011;54562;47.620;18.786;2023-12-14T03:12:03;99.10;;;13.30;;
67757;SDS011;54562;47.620;18.786;2023-12-14T03:15:13;101.50;;;13.60;;
67757;SDS011;54562;47.620;18.786;2023-12-14T03:18:27;84.20;;;11.90;;
67757;SDS011;54562;47.620;18.786;2023-12-14T03:21:36;71.20;;;12.90;;
67757;SDS011;54562;47.620;18.786;2023-12-14T03:24:45;115.40;;;12.80;;
67757;SDS011;54562;47.620;18.786;2023-12-14T03:27:54;101.30;;;13.90;;
67757;SDS011;54562;47.620;18.786;2023-12-14T03:31:03;100.10;;;13.90;;
67757;SDS011;54562;47.620;18.786;2023-12-14T03:37:20;81.80;;;11.90;;
67757;SDS011;54562;47.620;18.786;2023-12-14T03:40:28;110.10;;;14.50;;
67757;SDS011;54562;47.620;18.786;2023-12-14T03:43:38;90.00;;;13.10;;
67757;SDS011;54562;47.620;18.786;2023-12-14T03:46:48;69.80;;;13.00;;
67757;SDS011;54562;47.620;18.786;2023-12-14T03:49:58;82.40;;;12.20;;
67757;SDS011;54562;47.620;18.786;2023-12-14T03:53:07;88.40;;;15.30;;
67757;SDS011;54562;47.620;18.786;2023-12-14T03:56:15;61.60;;;12.70;;
67757;SDS011;54562;47.620;18.786;2023-12-14T03:59:23;65.00;;;13.20;;
67757;SDS011;54562;47.620;18.786;2023-12-14T04:02:35;76.20;;;12.20;;
67757;SDS011;54562;47.620;18.786;2023-12-14T04:05:46;39.20;;;11.60;;
67757;SDS011;54562;47.620;18.786;2023-12-14T04:08:54;59.30;;;12.70;;
67757;SDS011;54562;47.620;18.786;2023-12-14T04:12:04;53.90;;;12.00;;
67757;SDS011;54562;47.620;18.786;2023-12-14T04:15:12;46.00;;;12.20;;
67757;SDS011;54562;47.620;18.786;2023-12-14T04:18:20;82.40;;;13.30;;
67757;SDS011;54562;47.620;18.786;2023-12-14T04:21:28;64.20;;;12.50;;
67757;SDS011;54562;47.620;18.786;2023-12-14T04:24:37;52.40;;;12.20;;
67757;SDS011;54562;47.620;18.786;2023-12-14T04:27:47;60.10;;;11.70;;
67757;SDS011;54562;47.620;18.786;2023-12-14T04:31:05;65.60;;;11.80;;
67757;SDS011;54562;47.620;18.786;2023-12-14T04:34:16;44.00;;;11.60;;
67757;SDS011;54562;47.620;18.786;2023-12-14T04:37:24;62.30;;;11.70;;
67757;SDS011;54562;47.620;18.786;2023-12-14T04:40:32;54.50;;;11.80;;
67757;SDS011;54562;47.620;18.786;2023-12-14T04:43:42;50.80;;;11.60;;
67757;SDS011;54562;47.620;18.786;2023-12-14T04:46:53;54.10;;;12.20;;
67757;SDS011;54562;47.620;18.786;2023-12-14T04:50:01;83.50;;;12.20;;
67757;SDS011;54562;47.620;18.786;2023-12-14T04:53:09;60.30;;;11.80;;
67757;SDS011;54562;47.620;18.786;2023-12-14T04:56:17;40.10;;;10.20;;
67757;SDS011;54562;47.620;18.786;2023-12-14T04:59:28;44.20;;;11.80;;
67757;SDS011;54562;47.620;18.786;2023-12-14T05:02:36;49.40;;;11.30;;
67757;SDS011;54562;47.620;18.786;2023-12-14T05:05:45;56.30;;;11.90;;
67757;SDS011;54562;47.620;18.786;2023-12-14T05:08:53;49.60;;;11.20;;
67757;SDS011;54562;47.620;18.786;2023-12-14T05:15:09;50.30;;;11.20;;
67757;SDS011;54562;47.620;18.786;2023-12-14T05:18:21;52.80;;;12.40;;
67757;SDS011;54562;47.620;18.786;2023-12-14T05:21:29;67.60;;;13.60;;
67757;SDS011;54562;47.620;18.786;2023-12-14T05:24:38;52.90;;;12.70;;
67757;SDS011;54562;47.620;18.786;2023-12-14T05:27:46;43.60;;;13.20;;
67757;SDS011;54562;47.620;18.786;2023-12-14T05:30:54;40.70;;;13.80;;
67757;SDS011;54562;47.620;18.786;2023-12-14T05:34:02;34.10;;;12.70;;
67757;SDS011;54562;47.620;18.786;2023-12-14T05:37:10;29.40;;;14.00;;
67757;SDS011;54562;47.620;18.786;2023-12-14T05:40:19;31.10;;;14.20;;
67757;SDS011;54562;47.620;18.786;2023-12-14T05:43:26;30.20;;;14.60;;
67757;SDS011;54562;47.620;18.786;2023-12-14T05:46:32;30.50;;;15.30;;
67757;SDS011;54562;47.620;18.786;2023-12-14T05:49:41;32.10;;;14.90;;
67757;SDS011;54562;47.620;18.786;2023-12-14T05:52:48;31.30;;;16.20;;
67757;SDS011;54562;47.620;18.786;2023-12-14T05:55:55;27.50;;;14.20;;
67757;SDS011;54562;47.620;18.786;2023-12-14T05:59:02;28.90;;;14.60;;
67757;SDS011;54562;47.620;18.786;2023-12-14T06:02:09;30.50;;;15.50;;
67757;SDS011;54562;47.620;18.786;2023-12-14T06:05:16;28.00;;;14.20;;
67757;SDS011;54562;47.620;18.786;2023-12-14T06:08:23;31.90;;;16.30;;
67757;SDS011;54562;47.620;18.786;2023-12-14T06:11:29;28.40;;;14.90;;
67757;SDS011;54562;47.620;18.786;2023-12-14T06:14:36;31.60;;;14.90;;
67757;SDS011;54562;47.620;18.786;2023-12-14T06:17:43;35.70;;;15.60;;
67757;SDS011;54562;47.620;18.786;2023-12-14T06:20:50;28.50;;;14.40;;
67757;SDS011;54562;47.620;18.786;2023-12-14T06:23:56;31.60;;;15.70;;
67757;SDS011;54562;47.620;18.786;2023-12-14T06:27:03;33.70;;;14.50;;
67757;SDS011;54562;47.620;18.786;2023-12-14T06:30:11;29.30;;;15.10;;
67757;SDS011;54562;47.620;18.786;2023-12-14T06:33:18;28.30;;;13.40;;
67757;SDS011;54562;47.620;18.786;2023-12-14T06:36:25;30.40;;;15.80;;
67757;SDS011;54562;47.620;18.786;2023-12-14T06:39:33;31.20;;;15.70;;
67757;SDS011;54562;47.620;18.786;2023-12-14T06:42:40;28.40;;;14.60;;
67757;SDS011;54562;47.620;18.786;2023-12-14T06:45:47;30.00;;;15.60;;
67757;SDS011;54562;47.620;18.786;2023-12-14T06:48:54;30.40;;;16.40;;
67757;SDS011;54562;47.620;18.786;2023-12-14T06:52:00;30.90;;;15.60;;
67757;SDS011;54562;47.620;18.786;2023-12-14T06:55:08;28.40;;;15.40;;
67757;SDS011;54562;47.620;18.786;2023-12-14T06:58:15;29.90;;;15.70;;
67757;SDS011;54562;47.620;18.786;2023-12-14T07:01:21;30.40;;;15.90;;
67757;SDS011;54562;47.620;18.786;2023-12-14T07:04:28;29.20;;;15.30;;
67757;SDS011;54562;47.620;18.786;2023-12-14T07:07:35;27.10;;;14.30;;
67757;SDS011;54562;47.620;18.786;2023-12-14T07:10:42;30.20;;;14.70;;
67757;SDS011;54562;47.620;18.786;2023-12-14T07:13:49;28.50;;;15.20;;
67757;SDS011;54562;47.620;18.786;2023-12-14T07:16:55;31.50;;;15.20;;
67757;SDS011;54562;47.620;18.786;2023-12-14T07:20:02;29.10;;;15.60;;
67757;SDS011;54562;47.620;18.786;2023-12-14T07:23:10;29.10;;;15.30;;
67757;SDS011;54562;47.620;18.786;2023-12-14T07:26:17;28.70;;;15.20;;
67757;SDS011;54562;47.620;18.786;2023-12-14T07:29:23;29.30;;;14.80;;
67757;SDS011;54562;47.620;18.786;2023-12-14T07:32:30;33.50;;;15.80;;
67757;SDS011;54562;47.620;18.786;2023-12-14T07:35:37;28.50;;;15.90;;
67757;SDS011;54562;47.620;18.786;2023-12-14T07:38:44;29.30;;;15.50;;
67757;SDS011;54562;47.620;18.786;2023-12-14T07:41:52;32.70;;;15.70;;
67757;SDS011;54562;47.620;18.786;2023-12-14T07:44:58;29.90;;;15.70;;
67757;SDS011;54562;47.620;18.786;2023-12-14T07:48:05;32.40;;;15.60;;
67757;SDS011;54562;47.620;18.786;2023-12-14T07:51:11;44.00;;;17.80;;
67757;SDS011;54562;47.620;18.786;2023-12-14T07:54:18;28.50;;;14.90;;
67757;SDS011;54562;47.620;18.786;2023-12-14T07:57:24;29.80;;;15.30;;
67757;SDS011;54562;47.620;18.786;2023-12-14T08:00:31;29.40;;;15.50;;
67757;SDS011;54562;47.620;18.786;2023-12-14T08:03:38;29.20;;;15.00;;
67757;SDS011;54562;47.620;18.786;2023-12-14T08:06:44;29.40;;;15.10;;
67757;SDS011;54562;47.620;18.786;2023-12-14T08:09:51;29.60;;;15.60;;
67757;SDS011;54562;47.620;18.786;2023-12-14T08:12:59;25.40;;;14.80;;
67757;SDS011;54562;47.620;18.786;2023-12-14T08:16:07;26.80;;;15.30;;
67757;SDS011;54562;47.620;18.786;2023-12-14T08:19:14;26.70;;;15.30;;
67757;SDS011;54562;47.620;18.786;2023-12-14T08:22:21;29.50;;;15.60;;
67757;SDS011;54562;47.620;18.786;2023-12-14T08:25:28;28.60;;;16.10;;
67757;SDS011;54562;47.620;18.786;2023-12-14T08:28:34;28.90;;;16.10;;
67757;SDS011;54562;47.620;18.786;2023-12-14T08:31:40;29.30;;;16.10;;
67757;SDS011;54562;47.620;18.786;2023-12-14T08:34:47;32.30;;;17.00;;
67757;SDS011;54562;47.620;18.786;2023-12-14T08:37:56;30.70;;;17.00;;
67757;SDS011;54562;47.620;18.786;2023-12-14T08:41:03;30.80;;;16.90;;
67757;SDS011;54562;47.620;18.786;2023-12-14T08:44:10;33.20;;;17.50;;
67757;SDS011;54562;47.620;18.786;2023-12-14T08:47:16;31.40;;;17.60;;
67757;SDS011;54562;47.620;18.786;2023-12-14T08:50:24;27.40;;;16.50;;
67757;SDS011;54562;47.620;18.786;2023-12-14T08:53:30;33.20;;;16.90;;
67757;SDS011;54562;47.620;18.786;2023-12-14T08:56:37;31.70;;;17.40;;
67757;SDS011;54562;47.620;18.786;2023-12-14T08:59:44;33.00;;;17.00;;
67757;SDS011;54562;47.620;18.786;2023-12-14T09:02:50;30.40;;;16.70;;
67757;SDS011;54562;47.620;18.786;2023-12-14T09:05:56;34.10;;;18.50;;
67757;SDS011;54562;47.620;18.786;2023-12-14T09:09:06;29.60;;;16.90;;
67757;SDS011;54562;47.620;18.786;2023-12-14T09:12:13;31.50;;;16.40;;
67757;SDS011;54562;47.620;18.786;2023-12-14T09:15:19;32.10;;;17.50;;
67757;SDS011;54562;47.620;18.786;2023-12-14T09:18:26;31.60;;;16.70;;
67757;SDS011;54562;47.620;18.786;2023-12-14T09:21:33;28.50;;;15.60;;
67757;SDS011;54562;47.620;18.786;2023-12-14T09:24:48;29.40;;;15.60;;
67757;SDS011;54562;47.620;18.786;2023-12-14T09:27:55;27.90;;;16.70;;
67757;SDS011;54562;47.620;18.786;2023-12-14T09:31:01;29.20;;;16.30;;
67757;SDS011;54562;47.620;18.786;2023-12-14T09:37:16;28.20;;;14.90;;
67757;SDS011;54562;47.620;18.786;2023-12-14T09:40:23;30.60;;;16.70;;
67757;SDS011;54562;47.620;18.786;2023-12-14T09:43:30;33.40;;;16.90;;
67757;SDS011;54562;47.620;18.786;2023-12-14T09:46:38;31.30;;;16.60;;
67757;SDS011;54562;47.620;18.786;2023-12-14T09:49:53;27.50;;;16.20;;
67757;SDS011;54562;47.620;18.786;2023-12-14T09:53:00;30.00;;;17.00;;
67757;SDS011;54562;47.620;18.786;2023-12-14T09:56:07;28.20;;;16.90;;
67757;SDS011;54562;47.620;18.786;2023-12-14T09:59:14;32.70;;;17.30;;
67757;SDS011;54562;47.620;18.786;2023-12-14T10:02:24;30.90;;;16.70;;
67757;SDS011;54562;47.620;18.786;2023-12-14T10:05:31;28.00;;;14.80;;
67757;SDS011;54562;47.620;18.786;2023-12-14T10:08:38;27.60;;;15.70;;
67757;SDS011;54562;47.620;18.786;2023-12-14T10:11:45;28.90;;;16.70;;
67757;SDS011;54562;47.620;18.786;2023-12-14T10:14:59;29.80;;;17.10;;
67757;SDS011;54562;47.620;18.786;2023-12-14T10:18:09;29.50;;;16.00;;
67757;SDS011;54562;47.620;18.786;2023-12-14T10:21:16;29.90;;;17.40;;
67757;SDS011;54562;47.620;18.786;2023-12-14T10:24:24;28.50;;;16.30;;
67757;SDS011;54562;47.620;18.786;2023-12-14T10:27:31;28.60;;;16.50;;
67757;SDS011;54562;47.620;18.786;2023-12-14T10:30:38;29.30;;;16.40;;
67757;SDS011;54562;47.620;18.786;2023-12-14T10:33:45;32.10;;;17.60;;
67757;SDS011;54562;47.620;18.786;2023-12-14T10:36:52;29.70;;;16.70;;
67757;SDS011;54562;47.620;18.786;2023-12-14T10:39:59;31.80;;;17.10;;
67757;SDS011;54562;47.620;18.786;2023-12-14T10:43:08;29.30;;;16.90;;
67757;SDS011;54562;47.620;18.786;2023-12-14T10:46:22;28.70;;;16.90;;
67757;SDS011;54562;47.620;18.786;2023-12-14T10:49:29;30.40;;;16.90;;
67757;SDS011;54562;47.620;18.786;2023-12-14T10:52:38;28.20;;;17.20;;
67757;SDS011;54562;47.620;18.786;2023-12-14T10:55:44;28.00;;;16.60;;
67757;SDS011;54562;47.620;18.786;2023-12-14T10:58:52;32.60;;;17.80;;
67757;SDS011;54562;47.620;18.786;2023-12-14T11:02:00;23.80;;;14.40;;
67757;SDS011;54562;47.620;18.786;2023-12-14T11:05:15;28.20;;;15.20;;
67757;SDS011;54562;47.620;18.786;2023-12-14T11:08:27;27.20;;;15.50;;
67757;SDS011;54562;47.620;18.786;2023-12-14T11:11:39;29.00;;;16.30;;
67757;SDS011;54562;47.620;18.786;2023-12-14T11:14:47;27.50;;;15.00;;
67757;SDS011;54562;47.620;18.786;2023-12-14T11:21:29;27.10;;;15.20;;
67757;SDS011;54562;47.620;18.786;2023-12-14T11:24:35;26.20;;;15.40;;
67757;SDS011;54562;47.620;18.786;2023-12-14T11:27:43;27.40;;;15.90;;
67757;SDS011;54562;47.620;18.786;2023-12-14T11:30:50;25.40;;;15.70;;
67757;SDS011;54562;47.620;18.786;2023-12-14T11:33:58;29.60;;;16.30;;
67757;SDS011;54562;47.620;18.786;2023-12-14T11:37:07;27.40;;;15.60;;
67757;SDS011;54562;47.620;18.786;2023-12-14T11:40:14;25.90;;;14.30;;
67757;SDS011;54562;47.620;18.786;2023-12-14T11:43:26;26.10;;;13.90;;
67757;SDS011;54562;47.620;18.786;2023-12-14T11:46:33;29.40;;;16.20;;
67757;SDS011;54562;47.620;18.786;2023-12-14T11:49:40;26.60;;;14.80;;
67757;SDS011;54562;47.620;18.786;2023-12-14T11:52:47;27.90;;;16.50;;
67757;SDS011;54562;47.620;18.786;2023-12-14T11:55:53;26.60;;;15.20;;
67757;SDS011;54562;47.620;18.786;2023-12-14T11:59:00;23.70;;;14.00;;
67757;SDS011;54562;47.620;18.786;2023-12-14T12:02:07;25.70;;;15.20;;
67757;SDS011;54562;47.620;18.786;2023-12-14T12:05:14;26.90;;;15.30;;
67757;SDS011;54562;47.620;18.786;2023-12-14T12:08:22;22.90;;;13.70;;
67757;SDS011;54562;47.620;18.786;2023-12-14T12:11:29;27.20;;;15.70;;
67757;SDS011;54562;47.620;18.786;2023-12-14T12:14:37;31.10;;;16.80;;
67757;SDS011;54562;47.620;18.786;2023-12-14T12:17:45;26.60;;;15.70;;
67757;SDS011;54562;47.620;18.786;2023-12-14T12:20:51;27.60;;;16.20;;
67757;SDS011;54562;47.620;18.786;2023-12-14T12:23:58;26.60;;;15.20;;
67757;SDS011;54562;47.620;18.786;2023-12-14T12:27:17;28.60;;;16.20;;
67757;SDS011;54562;47.620;18.786;2023-12-14T12:30:23;25.30;;;15.70;;
67757;SDS011;54562;47.620;18.786;2023-12-14T12:33:30;29.30;;;16.70;;
67757;SDS011;54562;47.620;18.786;2023-12-14T12:36:42;26.80;;;16.00;;
67757;SDS011;54562;47.620;18.786;2023-12-14T12:39:49;28.00;;;16.60;;
67757;SDS011;54562;47.620;18.786;2023-12-14T12:42:55;28.00;;;16.10;;
67757;SDS011;54562;47.620;18.786;2023-12-14T12:46:02;26.50;;;15.40;;
67757;SDS011;54562;47.620;18.786;2023-12-14T12:49:09;27.80;;;15.90;;
67757;SDS011;54562;47.620;18.786;2023-12-14T12:52:16;27.80;;;15.70;;
67757;SDS011;54562;47.620;18.786;2023-12-14T12:55:22;26.30;;;15.30;;
67757;SDS011;54562;47.620;18.786;2023-12-14T12:58:29;27.70;;;15.90;;
67757;SDS011;54562;47.620;18.786;2023-12-14T13:01:35;25.60;;;15.10;;
67757;SDS011;54562;47.620;18.786;2023-12-14T13:04:42;26.30;;;14.90;;
67757;SDS011;54562;47.620;18.786;2023-12-14T13:07:50;27.30;;;15.50;;
67757;SDS011;54562;47.620;18.786;2023-12-14T13:10:58;25.20;;;14.50;;
67757;SDS011;54562;47.620;18.786;2023-12-14T13:14:04;22.80;;;14.40;;
67757;SDS011;54562;47.620;18.786;2023-12-14T13:17:11;23.70;;;13.50;;
67757;SDS011;54562;47.620;18.786;2023-12-14T13:20:20;25.00;;;13.80;;
67757;SDS011;54562;47.620;18.786;2023-12-14T13:23:26;23.10;;;12.40;;
67757;SDS011;54562;47.620;18.786;2023-12-14T13:26:33;22.50;;;13.10;;
67757;SDS011;54562;47.620;18.786;2023-12-14T13:29:39;20.50;;;12.30;;
67757;SDS011;54562;47.620;18.786;2023-12-14T13:32:46;22.00;;;12.60;;
67757;SDS011;54562;47.620;18.786;2023-12-14T13:35:53;21.20;;;11.40;;
67757;SDS011;54562;47.620;18.786;2023-12-14T13:39:00;19.00;;;11.80;;
67757;SDS011;54562;47.620;18.786;2023-12-14T13:42:07;18.30;;;10.60;;
67757;SDS011;54562;47.620;18.786;2023-12-14T13:45:14;18.90;;;10.30;;
67757;SDS011;54562;47.620;18.786;2023-12-14T13:48:21;19.00;;;10.70;;
67757;SDS011;54562;47.620;18.786;2023-12-14T13:51:28;21.10;;;11.90;;
67757;SDS011;54562;47.620;18.786;2023-12-14T13:54:35;21.50;;;12.80;;
67757;SDS011;54562;47.620;18.786;2023-12-14T13:57:41;22.30;;;12.20;;
67757;SDS011;54562;47.620;18.786;2023-12-14T14:00:48;21.20;;;11.80;;
67757;SDS011;54562;47.620;18.786;2023-12-14T14:03:55;20.60;;;11.50;;
67757;SDS011;54562;47.620;18.786;2023-12-14T14:07:01;23.40;;;12.70;;
67757;SDS011;54562;47.620;18.786;2023-12-14T14:10:09;21.90;;;12.90;;
67757;SDS011;54562;47.620;18.786;2023-12-14T14:13:15;22.20;;;13.00;;
67757;SDS011;54562;47.620;18.786;2023-12-14T14:16:22;21.50;;;12.50;;
67757;SDS011;54562;47.620;18.786;2023-12-14T14:19:29;21.20;;;12.80;;
67757;SDS011;54562;47.620;18.786;2023-12-14T14:22:35;26.10;;;13.90;;
67757;SDS011;54562;47.620;18.786;2023-12-14T14:25:42;26.80;;;15.10;;
67757;SDS011;54562;47.620;18.786;2023-12-14T14:28:49;24.40;;;14.20;;
67757;SDS011;54562;47.620;18.786;2023-12-14T14:31:57;25.20;;;14.40;;
67757;SDS011;54562;47.620;18.786;2023-12-14T14:35:05;22.90;;;13.70;;
67757;SDS011;54562;47.620;18.786;2023-12-14T14:38:12;25.20;;;14.30;;
67757;SDS011;54562;47.620;18.786;2023-12-14T14:41:19;25.60;;;13.60;;
67757;SDS011;54562;47.620;18.786;2023-12-14T14:44:26;21.50;;;12.70;;
67757;SDS011;54562;47.620;18.786;2023-12-14T14:47:32;24.90;;;13.30;;
67757;SDS011;54562;47.620;18.786;2023-12-14T14:50:39;24.40;;;13.90;;
67757;SDS011;54562;47.620;18.786;2023-12-14T14:53:46;24.70;;;14.00;;
67757;SDS011;54562;47.620;18.786;2023-12-14T14:56:53;24.00;;;13.70;;
67757;SDS011;54562;47.620;18.786;2023-12-14T14:59:59;26.30;;;14.70;;
67757;SDS011;54562;47.620;18.786;2023-12-14T15:03:06;24.80;;;12.50;;
67757;SDS011;54562;47.620;18.786;2023-12-14T15:06:13;24.90;;;13.40;;
67757;SDS011;54562;47.620;18.786;2023-12-14T15:09:20;23.30;;;12.20;;
67757;SDS011;54562;47.620;18.786;2023-12-14T15:12:26;25.40;;;13.90;;
67757;SDS011;54562;47.620;18.786;2023-12-14T15:15:33;25.70;;;14.50;;
67757;SDS011;54562;47.620;18.786;2023-12-14T15:18:41;23.70;;;12.70;;
67757;SDS011;54562;47.620;18.786;2023-12-14T15:21:47;23.70;;;12.70;;
67757;SDS011;54562;47.620;18.786;2023-12-14T15:24:53;23.60;;;13.50;;
67757;SDS011;54562;47.620;18.786;2023-12-14T15:28:00;24.80;;;14.00;;
67757;SDS011;54562;47.620;18.786;2023-12-14T15:31:07;23.20;;;12.90;;
67757;SDS011;54562;47.620;18.786;2023-12-14T15:34:14;26.70;;;14.70;;
67757;SDS011;54562;47.620;18.786;2023-12-14T15:37:22;22.70;;;13.10;;
67757;SDS011;54562;47.620;18.786;2023-12-14T15:40:28;25.20;;;14.30;;
67757;SDS011;54562;47.620;18.786;2023-12-14T15:43:34;23.00;;;13.00;;
67757;SDS011;54562;47.620;18.786;2023-12-14T15:46:41;24.70;;;14.10;;
67757;SDS011;54562;47.620;18.786;2023-12-14T15:49:47;27.20;;;14.80;;
67757;SDS011;54562;47.620;18.786;2023-12-14T15:52:54;24.90;;;13.40;;
67757;SDS011;54562;47.620;18.786;2023-12-14T15:56:01;28.20;;;14.50;;
67757;SDS011;54562;47.620;18.786;2023-12-14T15:59:09;27.70;;;14.70;;
67757;SDS011;54562;47.620;18.786;2023-12-14T16:02:15;24.20;;;13.90;;
67757;SDS011;54562;47.620;18.786;2023-12-14T16:05:22;25.20;;;13.90;;
67757;SDS011;54562;47.620;18.786;2023-12-14T16:08:28;26.70;;;14.70;;
67757;SDS011;54562;47.620;18.786;2023-12-14T16:11:36;25.70;;;14.50;;
67757;SDS011;54562;47.620;18.786;2023-12-14T16:14:42;26.70;;;14.80;;
67757;SDS011;54562;47.620;18.786;2023-12-14T16:17:48;25.10;;;14.40;;
67757;SDS011;54562;47.620;18.786;2023-12-14T16:20:55;26.90;;;15.60;;
67757;SDS011;54562;47.620;18.786;2023-12-14T16:24:03;27.70;;;15.70;;
67757;SDS011;54562;47.620;18.786;2023-12-14T16:27:12;32.40;;;16.20;;
67757;SDS011;54562;47.620;18.786;2023-12-14T16:30:20;27.70;;;15.50;;
67757;SDS011;54562;47.620;18.786;2023-12-14T16:33:27;29.30;;;15.60;;
67757;SDS011;54562;47.620;18.786;2023-12-14T16:36:33;25.20;;;14.20;;
67757;SDS011;54562;47.620;18.786;2023-12-14T16:39:41;29.40;;;15.40;;
67757;SDS011;54562;47.620;18.786;2023-12-14T16:42:47;30.10;;;16.40;;
67757;SDS011;54562;47.620;18.786;2023-12-14T16:45:53;23.50;;;13.60;;
67757;SDS011;54562;47.620;18.786;2023-12-14T16:49:00;31.20;;;17.00;;
67757;SDS011;54562;47.620;18.786;2023-12-14T16:52:07;25.30;;;13.90;;
67757;SDS011;54562;47.620;18.786;2023-12-14T16:55:14;29.20;;;16.40;;
67757;SDS011;54562;47.620;18.786;2023-12-14T16:58:21;28.10;;;16.60;;
67757;SDS011;54562;47.620;18.786;2023-12-14T17:01:27;28.60;;;16.00;;
67757;SDS011;54562;47.620;18.786;2023-12-14T17:04:34;26.40;;;14.50;;
67757;SDS011;54562;47.620;18.786;2023-12-14T17:07:41;30.40;;;16.40;;
67757;SDS011;54562;47.620;18.786;2023-12-14T17:10:48;30.90;;;16.80;;
67757;SDS011;54562;47.620;18.786;2023-12-14T17:13:55;26.50;;;14.40;;
67757;SDS011;54562;47.620;18.786;2023-12-14T17:17:02;26.30;;;15.40;;
67757;SDS011;54562;47.620;18.786;2023-12-14T17:20:12;24.90;;;14.60;;
67757;SDS011;54562;47.620;18.786;2023-12-14T17:23:18;25.10;;;15.10;;
67757;SDS011;54562;47.620;18.786;2023-12-14T17:26:25;29.00;;;16.20;;
67757;SDS011;54562;47.620;18.786;2023-12-14T17:29:32;25.70;;;14.50;;
67757;SDS011;54562;47.620;18.786;2023-12-14T17:32:39;29.90;;;15.30;;
67757;SDS011;54562;47.620;18.786;2023-12-14T17:35:45;27.40;;;15.10;;
67757;SDS011;54562;47.620;18.786;2023-12-14T17:38:52;32.30;;;16.30;;
67757;SDS011;54562;47.620;18.786;2023-12-14T17:41:59;28.30;;;15.00;;
67757;SDS011;54562;47.620;18.786;2023-12-14T17:45:20;28.70;;;15.40;;
67757;SDS011;54562;47.620;18.786;2023-12-14T17:48:27;30.80;;;15.70;;
67757;SDS011;54562;47.620;18.786;2023-12-14T17:51:33;29.30;;;15.30;;
67757;SDS011;54562;47.620;18.786;2023-12-14T17:54:45;30.10;;;15.00;;
67757;SDS011;54562;47.620;18.786;2023-12-14T17:57:54;29.70;;;16.80;;
67757;SDS011;54562;47.620;18.786;2023-12-14T18:01:01;26.60;;;14.60;;
67757;SDS011;54562;47.620;18.786;2023-12-14T18:04:09;30.20;;;15.70;;
67757;SDS011;54562;47.620;18.786;2023-12-14T18:07:16;27.80;;;15.20;;
67757;SDS011;54562;47.620;18.786;2023-12-14T18:10:23;28.50;;;15.30;;
67757;SDS011;54562;47.620;18.786;2023-12-14T18:13:30;26.80;;;15.00;;